Tabatinga Airport
SBTT : now visible

Aeroporto :











RITROVATECI SU...

 
LOGIN :

Iscrizione | Disclaimer

   EN    FR    IT 

 









Sommario :    VFR   VFR Marginale   IFR   IFR Intensivo   IFR Molto Intensivo
Visibilità : 
Base nubi : 
>= 8 km
>= 3000ft
5 / 8 km
1000 / 3000 ft
1500m / 5 km
500 / 1000 ft
800 / 1500m
200 / 500 ft
< 800m
< 200 ft
Simboli :   Temporali  Nebbia  Neve Forte  Precipitazioni Forti  Vento > 20 kt






- Altitudine del aeroporto : 279 ft
- Codice IATA : TBT


SBTT - Tabatinga

ULTIMO METAR :
  • 312000Z 28003KT 9999 SCT020 FEW025TCU BKN100 28/26 Q1012

METARs OBSOLETI :
  • 311900Z 25001KT 9999 VCSH FEW020 FEW025TCU BKN090 27/25 Q1013
  • 311800Z 32004KT 9999 VCSH FEW020 FEW025TCU BKN080 26/24 Q1014 RETS

TAF TAF SBTT
Valido dal 31 a 18 ore il 01 a 18 ore UTC


311500Z 3118/0118 07005KT 9999 FEW020 TN23/0106Z TX30/0118Z
BECMG 0112/0114 FEW020 FEW025TCU
PROB40
TEMPO 0115/0118 22006KT 5000 TSRA FEW020 FEW025CB RMK PEG
FIR SBAZ / Sudamerica



MetMap, La meteo Aeronautica in un colpo d'occhio ! - Copyright ORBIFLY Dicembre 2007 - Disclaimer

ORBIFLY MET'MAP TEAM :

Programmazione e sviluppo : Alexandra Zaïnal
Concezione : Baudouin d'Aumeries
Aiuto per la programmazione : Marc-Olivier Méhu
Supporto tecnico e logistico : Manuel Goepfert
Aiuto per la traduzione : Arnaldo La Scala

Contatto : metmap@orbifly.com




FONTI E CREDITI :

   NOAA       Earth
Advisory